sensor_id;sensor_type;location;lat;lon;timestamp;pressure;altitude;pressure_sealevel;temperature;humidity
76496;BME280;65329;52.544;4.662;2023-12-29T00:00:13;117940.31;;;-139.74;6.79
76496;BME280;65329;52.544;4.662;2023-12-29T00:02:42;117940.31;;;-139.74;5.10
76496;BME280;65329;52.544;4.662;2023-12-29T00:05:09;117940.31;;;-139.74;0.58
76496;BME280;65329;52.544;4.662;2023-12-29T00:07:36;117940.31;;;-139.74;0.56
76496;BME280;65329;52.544;4.662;2023-12-29T00:10:05;117940.31;;;-139.74;0.00
76496;BME280;65329;52.544;4.662;2023-12-29T00:12:32;117940.31;;;-139.74;0.00
76496;BME280;65329;52.544;4.662;2023-12-29T00:14:59;117940.31;;;-139.74;0.00
76496;BME280;65329;52.544;4.662;2023-12-29T00:17:26;117940.31;;;-139.74;0.00
76496;BME280;65329;52.544;4.662;2023-12-29T00:19:53;117940.31;;;-139.74;0.00
76496;BME280;65329;52.544;4.662;2023-12-29T00:22:20;117940.31;;;-139.74;0.00
76496;BME280;65329;52.544;4.662;2023-12-29T00:24:48;117940.31;;;-139.74;0.00
76496;BME280;65329;52.544;4.662;2023-12-29T00:27:14;117940.31;;;-139.74;0.00
76496;BME280;65329;52.544;4.662;2023-12-29T00:29:42;117940.31;;;-139.74;1.20
76496;BME280;65329;52.544;4.662;2023-12-29T00:32:09;117940.31;;;-139.74;6.79
76496;BME280;65329;52.544;4.662;2023-12-29T00:34:36;117940.31;;;-139.74;2.58
76496;BME280;65329;52.544;4.662;2023-12-29T00:37:05;117940.31;;;-139.74;10.45
76496;BME280;65329;52.544;4.662;2023-12-29T00:39:33;117940.31;;;-139.74;11.45
76496;BME280;65329;52.544;4.662;2023-12-29T00:42:06;117940.31;;;-139.74;10.68
76496;BME280;65329;52.544;4.662;2023-12-29T00:44:34;117940.31;;;-139.74;9.78
76496;BME280;65329;52.544;4.662;2023-12-29T00:47:01;117940.31;;;-139.74;8.91
76496;BME280;65329;52.544;4.662;2023-12-29T00:49:28;117940.31;;;-139.74;3.78
76496;BME280;65329;52.544;4.662;2023-12-29T00:51:55;117940.31;;;-139.74;3.98
76496;BME280;65329;52.544;4.662;2023-12-29T00:54:23;117940.31;;;-139.74;1.73
76496;BME280;65329;52.544;4.662;2023-12-29T00:56:53;117940.31;;;-139.74;0.00
76496;BME280;65329;52.544;4.662;2023-12-29T00:59:20;117940.31;;;-139.74;0.00
76496;BME280;65329;52.544;4.662;2023-12-29T01:01:47;117940.31;;;-139.74;0.00
76496;BME280;65329;52.544;4.662;2023-12-29T01:04:15;117940.31;;;-139.74;0.00
76496;BME280;65329;52.544;4.662;2023-12-29T01:06:42;117940.31;;;-139.74;0.00
76496;BME280;65329;52.544;4.662;2023-12-29T01:09:09;117940.31;;;-139.74;0.00
76496;BME280;65329;52.544;4.662;2023-12-29T01:11:38;117940.31;;;-139.74;0.00
76496;BME280;65329;52.544;4.662;2023-12-29T01:14:07;117940.31;;;-139.74;0.00
76496;BME280;65329;52.544;4.662;2023-12-29T01:16:34;117940.31;;;-139.74;0.02
76496;BME280;65329;52.544;4.662;2023-12-29T01:19:01;117940.31;;;-139.74;4.87
76496;BME280;65329;52.544;4.662;2023-12-29T01:21:29;117940.31;;;-139.74;8.01
76496;BME280;65329;52.544;4.662;2023-12-29T01:24:01;117940.31;;;-139.74;14.96
76496;BME280;65329;52.544;4.662;2023-12-29T01:26:30;117940.31;;;-139.74;18.67
76496;BME280;65329;52.544;4.662;2023-12-29T01:28:57;117940.31;;;-139.74;18.02
76496;BME280;65329;52.544;4.662;2023-12-29T01:31:29;117940.31;;;-139.74;18.50
76496;BME280;65329;52.544;4.662;2023-12-29T01:33:57;117940.31;;;-139.74;18.85
76496;BME280;65329;52.544;4.662;2023-12-29T01:36:24;117940.31;;;-139.74;16.17
76496;BME280;65329;52.544;4.662;2023-12-29T01:38:51;117940.31;;;-139.74;11.98
76496;BME280;65329;52.544;4.662;2023-12-29T01:41:21;117940.31;;;-139.74;10.82
76496;BME280;65329;52.544;4.662;2023-12-29T01:46:29;117940.31;;;-139.74;11.06
76496;BME280;65329;52.544;4.662;2023-12-29T01:48:58;117940.31;;;-139.74;11.57
76496;BME280;65329;52.544;4.662;2023-12-29T01:51:27;117940.31;;;-139.74;12.89
76496;BME280;65329;52.544;4.662;2023-12-29T01:53:56;117940.31;;;-139.74;13.38
76496;BME280;65329;52.544;4.662;2023-12-29T01:56:25;117940.31;;;-139.74;11.19
76496;BME280;65329;52.544;4.662;2023-12-29T01:58:54;117940.31;;;-139.74;9.82
76496;BME280;65329;52.544;4.662;2023-12-29T02:01:36;117940.31;;;-139.74;4.94
76496;BME280;65329;52.544;4.662;2023-12-29T02:04:05;117940.31;;;-139.74;1.77
76496;BME280;65329;52.544;4.662;2023-12-29T02:06:34;117940.31;;;-139.74;0.00
76496;BME280;65329;52.544;4.662;2023-12-29T02:09:02;117940.31;;;-139.74;0.00
76496;BME280;65329;52.544;4.662;2023-12-29T02:11:31;117940.31;;;-139.74;0.00
76496;BME280;65329;52.544;4.662;2023-12-29T02:13:59;117940.31;;;-139.74;0.00
76496;BME280;65329;52.544;4.662;2023-12-29T02:17:10;117940.31;;;-139.74;0.00
76496;BME280;65329;52.544;4.662;2023-12-29T02:19:45;117940.31;;;-139.74;0.00
76496;BME280;65329;52.544;4.662;2023-12-29T02:22:14;117940.31;;;-139.74;0.00
76496;BME280;65329;52.544;4.662;2023-12-29T02:24:46;117940.31;;;-139.74;0.00
76496;BME280;65329;52.544;4.662;2023-12-29T02:32:45;117940.31;;;-139.74;0.00
76496;BME280;65329;52.544;4.662;2023-12-29T02:35:28;117940.31;;;-139.74;0.00
76496;BME280;65329;52.544;4.662;2023-12-29T02:37:56;117940.31;;;-139.74;0.00
76496;BME280;65329;52.544;4.662;2023-12-29T02:40:25;117940.31;;;-139.74;0.00
76496;BME280;65329;52.544;4.662;2023-12-29T02:42:52;117940.31;;;-139.74;0.00
76496;BME280;65329;52.544;4.662;2023-12-29T02:45:19;117940.31;;;-139.74;0.00
76496;BME280;65329;52.544;4.662;2023-12-29T02:47:47;117940.31;;;-139.74;0.00
76496;BME280;65329;52.544;4.662;2023-12-29T02:50:14;117940.31;;;-139.74;0.00
76496;BME280;65329;52.544;4.662;2023-12-29T02:52:42;117940.31;;;-139.74;0.00
76496;BME280;65329;52.544;4.662;2023-12-29T02:55:09;117940.31;;;-139.74;0.00
76496;BME280;65329;52.544;4.662;2023-12-29T02:57:36;117940.31;;;-139.74;0.00
76496;BME280;65329;52.544;4.662;2023-12-29T03:00:04;117940.31;;;-139.74;0.00
76496;BME280;65329;52.544;4.662;2023-12-29T03:02:31;117940.31;;;-139.74;0.00
76496;BME280;65329;52.544;4.662;2023-12-29T03:04:59;117940.31;;;-139.74;0.00
76496;BME280;65329;52.544;4.662;2023-12-29T03:07:26;117940.31;;;-139.74;0.00
76496;BME280;65329;52.544;4.662;2023-12-29T03:09:53;117940.31;;;-139.74;0.00
76496;BME280;65329;52.544;4.662;2023-12-29T03:12:20;117940.31;;;-139.74;0.00
76496;BME280;65329;52.544;4.662;2023-12-29T03:14:48;117940.31;;;-139.74;0.00
76496;BME280;65329;52.544;4.662;2023-12-29T03:17:15;117940.31;;;-139.74;0.00
76496;BME280;65329;52.544;4.662;2023-12-29T03:19:42;117940.31;;;-139.74;0.00
76496;BME280;65329;52.544;4.662;2023-12-29T03:22:09;117940.31;;;-139.74;0.00
76496;BME280;65329;52.544;4.662;2023-12-29T03:24:36;117940.31;;;-139.74;0.00
76496;BME280;65329;52.544;4.662;2023-12-29T03:27:05;117940.31;;;-139.74;0.00
76496;BME280;65329;52.544;4.662;2023-12-29T03:29:32;117940.31;;;-139.74;0.00
76496;BME280;65329;52.544;4.662;2023-12-29T03:31:59;117940.31;;;-139.74;0.00
76496;BME280;65329;52.544;4.662;2023-12-29T03:34:25;117940.31;;;-139.74;0.00
76496;BME280;65329;52.544;4.662;2023-12-29T03:36:53;117940.31;;;-139.74;0.00
76496;BME280;65329;52.544;4.662;2023-12-29T03:39:20;117940.31;;;-139.74;0.00
76496;BME280;65329;52.544;4.662;2023-12-29T03:41:47;117940.31;;;-139.74;0.00
76496;BME280;65329;52.544;4.662;2023-12-29T03:44:15;117940.31;;;-139.74;0.00
76496;BME280;65329;52.544;4.662;2023-12-29T03:46:43;117940.31;;;-139.74;0.00
76496;BME280;65329;52.544;4.662;2023-12-29T03:49:10;117940.31;;;-139.74;0.00
76496;BME280;65329;52.544;4.662;2023-12-29T03:51:37;117940.31;;;-139.74;0.00
76496;BME280;65329;52.544;4.662;2023-12-29T03:54:04;117940.31;;;-139.74;0.00
76496;BME280;65329;52.544;4.662;2023-12-29T03:56:31;117940.31;;;-139.74;0.00
76496;BME280;65329;52.544;4.662;2023-12-29T03:58:58;117940.31;;;-139.74;0.00
76496;BME280;65329;52.544;4.662;2023-12-29T04:01:26;117940.31;;;-139.74;0.00
76496;BME280;65329;52.544;4.662;2023-12-29T04:03:55;117940.31;;;-139.74;0.00
76496;BME280;65329;52.544;4.662;2023-12-29T04:06:22;117940.31;;;-139.74;0.00
76496;BME280;65329;52.544;4.662;2023-12-29T04:08:49;117940.31;;;-139.74;0.00
76496;BME280;65329;52.544;4.662;2023-12-29T04:11:16;117940.31;;;-139.74;0.00
76496;BME280;65329;52.544;4.662;2023-12-29T04:13:43;117940.31;;;-139.74;0.00
76496;BME280;65329;52.544;4.662;2023-12-29T04:16:10;117940.31;;;-139.74;0.00
76496;BME280;65329;52.544;4.662;2023-12-29T04:18:37;117940.31;;;-139.74;0.00
76496;BME280;65329;52.544;4.662;2023-12-29T04:21:05;117940.31;;;-139.74;0.00
76496;BME280;65329;52.544;4.662;2023-12-29T04:23:32;117940.31;;;-139.74;0.00
76496;BME280;65329;52.544;4.662;2023-12-29T04:26:00;117940.31;;;-139.74;0.00
76496;BME280;65329;52.544;4.662;2023-12-29T04:28:27;117940.31;;;-139.74;0.00
76496;BME280;65329;52.544;4.662;2023-12-29T04:30:55;117940.31;;;-139.74;0.00
76496;BME280;65329;52.544;4.662;2023-12-29T04:33:23;117940.31;;;-139.74;0.00
76496;BME280;65329;52.544;4.662;2023-12-29T04:35:51;117940.31;;;-139.74;0.00
76496;BME280;65329;52.544;4.662;2023-12-29T04:38:18;117940.31;;;-139.74;0.00
76496;BME280;65329;52.544;4.662;2023-12-29T04:40:46;117940.31;;;-139.74;0.00
76496;BME280;65329;52.544;4.662;2023-12-29T04:43:16;117940.31;;;-139.74;0.00
76496;BME280;65329;52.544;4.662;2023-12-29T04:45:43;117940.31;;;-139.74;0.00
76496;BME280;65329;52.544;4.662;2023-12-29T04:48:10;117940.31;;;-139.74;0.00
76496;BME280;65329;52.544;4.662;2023-12-29T04:50:37;117940.31;;;-139.74;0.00
76496;BME280;65329;52.544;4.662;2023-12-29T04:53:04;117940.31;;;-139.74;0.00
76496;BME280;65329;52.544;4.662;2023-12-29T04:55:31;117940.31;;;-139.74;0.00
76496;BME280;65329;52.544;4.662;2023-12-29T04:57:58;117940.31;;;-139.74;0.00
76496;BME280;65329;52.544;4.662;2023-12-29T05:00:26;117940.31;;;-139.74;0.00
76496;BME280;65329;52.544;4.662;2023-12-29T05:02:52;117940.31;;;-139.74;0.00
76496;BME280;65329;52.544;4.662;2023-12-29T05:05:20;117940.31;;;-139.74;0.00
76496;BME280;65329;52.544;4.662;2023-12-29T05:07:47;117940.31;;;-139.74;0.00
76496;BME280;65329;52.544;4.662;2023-12-29T05:10:14;117940.31;;;-139.74;0.00
76496;BME280;65329;52.544;4.662;2023-12-29T05:12:41;117940.31;;;-139.74;0.00
76496;BME280;65329;52.544;4.662;2023-12-29T05:15:08;117940.31;;;-139.74;0.00
76496;BME280;65329;52.544;4.662;2023-12-29T05:17:36;117940.31;;;-139.74;0.00
76496;BME280;65329;52.544;4.662;2023-12-29T05:20:04;117940.31;;;-139.74;0.00
76496;BME280;65329;52.544;4.662;2023-12-29T05:22:31;117940.31;;;-139.74;0.00
76496;BME280;65329;52.544;4.662;2023-12-29T05:24:58;117940.31;;;-139.74;0.00
76496;BME280;65329;52.544;4.662;2023-12-29T05:27:27;117940.31;;;-139.74;0.00
76496;BME280;65329;52.544;4.662;2023-12-29T05:29:54;117940.31;;;-139.74;0.00
76496;BME280;65329;52.544;4.662;2023-12-29T05:32:20;117940.31;;;-139.74;0.00
76496;BME280;65329;52.544;4.662;2023-12-29T05:34:48;117940.31;;;-139.74;0.00
76496;BME280;65329;52.544;4.662;2023-12-29T05:37:15;117940.31;;;-139.74;0.00
76496;BME280;65329;52.544;4.662;2023-12-29T05:39:43;117940.31;;;-139.74;0.00
76496;BME280;65329;52.544;4.662;2023-12-29T05:42:10;117940.31;;;-139.74;0.00
76496;BME280;65329;52.544;4.662;2023-12-29T05:44:39;117940.31;;;-139.74;0.00
76496;BME280;65329;52.544;4.662;2023-12-29T05:47:06;117940.31;;;-139.74;0.00
76496;BME280;65329;52.544;4.662;2023-12-29T05:49:33;117940.31;;;-139.74;0.00
76496;BME280;65329;52.544;4.662;2023-12-29T05:52:06;117940.31;;;-139.74;0.00
76496;BME280;65329;52.544;4.662;2023-12-29T05:54:34;117940.31;;;-139.74;0.00
76496;BME280;65329;52.544;4.662;2023-12-29T05:57:02;117940.31;;;-139.74;0.00
76496;BME280;65329;52.544;4.662;2023-12-29T05:59:29;117940.31;;;-139.74;0.00
76496;BME280;65329;52.544;4.662;2023-12-29T06:01:56;117940.31;;;-139.74;0.00
76496;BME280;65329;52.544;4.662;2023-12-29T06:04:23;117940.31;;;-139.74;0.00
76496;BME280;65329;52.544;4.662;2023-12-29T06:06:50;117940.31;;;-139.74;0.00
76496;BME280;65329;52.544;4.662;2023-12-29T06:09:18;117940.31;;;-139.74;0.00
76496;BME280;65329;52.544;4.662;2023-12-29T06:11:45;117940.31;;;-139.74;0.00
76496;BME280;65329;52.544;4.662;2023-12-29T06:14:12;117940.31;;;-139.74;0.00
76496;BME280;65329;52.544;4.662;2023-12-29T06:16:39;117940.31;;;-139.74;0.00
76496;BME280;65329;52.544;4.662;2023-12-29T06:19:07;117940.31;;;-139.74;0.00
76496;BME280;65329;52.544;4.662;2023-12-29T06:21:42;117940.31;;;-139.74;0.00
76496;BME280;65329;52.544;4.662;2023-12-29T06:24:11;117940.31;;;-139.74;0.00
76496;BME280;65329;52.544;4.662;2023-12-29T06:26:38;117940.31;;;-139.74;0.00
76496;BME280;65329;52.544;4.662;2023-12-29T06:29:10;117940.31;;;-139.74;0.00
76496;BME280;65329;52.544;4.662;2023-12-29T06:31:41;117940.31;;;-139.74;0.00
76496;BME280;65329;52.544;4.662;2023-12-29T06:34:11;117940.31;;;-139.74;0.00
76496;BME280;65329;52.544;4.662;2023-12-29T06:36:39;117940.31;;;-139.74;0.00
76496;BME280;65329;52.544;4.662;2023-12-29T06:39:05;117940.31;;;-139.74;0.00
76496;BME280;65329;52.544;4.662;2023-12-29T06:41:33;117940.31;;;-139.74;0.00
76496;BME280;65329;52.544;4.662;2023-12-29T06:44:00;117940.31;;;-139.74;0.00
76496;BME280;65329;52.544;4.662;2023-12-29T06:46:27;117940.31;;;-139.74;0.00
76496;BME280;65329;52.544;4.662;2023-12-29T06:48:55;117940.31;;;-139.74;0.00
76496;BME280;65329;52.544;4.662;2023-12-29T06:51:22;117940.31;;;-139.74;0.00
76496;BME280;65329;52.544;4.662;2023-12-29T06:53:50;117940.31;;;-139.74;0.00
76496;BME280;65329;52.544;4.662;2023-12-29T06:56:18;117940.31;;;-139.74;0.00
76496;BME280;65329;52.544;4.662;2023-12-29T06:58:45;117940.31;;;-139.74;0.00
76496;BME280;65329;52.544;4.662;2023-12-29T07:01:12;117940.31;;;-139.74;0.00
76496;BME280;65329;52.544;4.662;2023-12-29T07:03:40;117940.31;;;-139.74;0.00
76496;BME280;65329;52.544;4.662;2023-12-29T07:06:07;117940.31;;;-139.74;0.00
76496;BME280;65329;52.544;4.662;2023-12-29T07:08:34;117940.31;;;-139.74;0.00
76496;BME280;65329;52.544;4.662;2023-12-29T07:11:01;117940.31;;;-139.74;0.00
76496;BME280;65329;52.544;4.662;2023-12-29T07:13:28;117940.31;;;-139.74;0.00
76496;BME280;65329;52.544;4.662;2023-12-29T07:15:55;117940.31;;;-139.74;0.00
76496;BME280;65329;52.544;4.662;2023-12-29T07:18:22;117940.31;;;-139.74;0.00
76496;BME280;65329;52.544;4.662;2023-12-29T07:20:49;117940.31;;;-139.74;0.00
76496;BME280;65329;52.544;4.662;2023-12-29T07:23:17;117940.31;;;-139.74;0.00
76496;BME280;65329;52.544;4.662;2023-12-29T07:25:44;117940.31;;;-139.74;0.00
76496;BME280;65329;52.544;4.662;2023-12-29T07:28:11;117940.31;;;-139.74;0.00
76496;BME280;65329;52.544;4.662;2023-12-29T07:30:38;117940.31;;;-139.74;0.00
76496;BME280;65329;52.544;4.662;2023-12-29T07:33:05;117940.31;;;-139.74;0.00
76496;BME280;65329;52.544;4.662;2023-12-29T07:35:32;117940.31;;;-139.74;0.00
76496;BME280;65329;52.544;4.662;2023-12-29T07:38:00;117940.31;;;-139.74;0.00
76496;BME280;65329;52.544;4.662;2023-12-29T07:40:27;117940.31;;;-139.74;0.00
76496;BME280;65329;52.544;4.662;2023-12-29T07:42:55;117940.31;;;-139.74;0.00
76496;BME280;65329;52.544;4.662;2023-12-29T07:45:22;117940.31;;;-139.74;0.00
76496;BME280;65329;52.544;4.662;2023-12-29T07:47:49;117940.31;;;-139.74;0.00
76496;BME280;65329;52.544;4.662;2023-12-29T07:50:17;117940.31;;;-139.74;0.00
76496;BME280;65329;52.544;4.662;2023-12-29T07:52:44;117940.31;;;-139.74;0.00
76496;BME280;65329;52.544;4.662;2023-12-29T07:55:11;117940.31;;;-139.74;0.00
76496;BME280;65329;52.544;4.662;2023-12-29T07:57:38;117940.31;;;-139.74;0.00
76496;BME280;65329;52.544;4.662;2023-12-29T08:00:06;117940.31;;;-139.74;0.00
76496;BME280;65329;52.544;4.662;2023-12-29T08:02:37;117940.31;;;-139.74;0.00
76496;BME280;65329;52.544;4.662;2023-12-29T08:05:04;117940.31;;;-139.74;0.00
76496;BME280;65329;52.544;4.662;2023-12-29T08:07:31;117940.31;;;-139.74;0.00
76496;BME280;65329;52.544;4.662;2023-12-29T08:09:58;117940.31;;;-139.74;0.00
76496;BME280;65329;52.544;4.662;2023-12-29T08:12:26;117940.31;;;-139.74;0.00
76496;BME280;65329;52.544;4.662;2023-12-29T08:14:55;117940.31;;;-139.74;0.00
76496;BME280;65329;52.544;4.662;2023-12-29T08:17:22;117940.31;;;-139.74;0.00
76496;BME280;65329;52.544;4.662;2023-12-29T08:19:49;117940.31;;;-139.74;0.00
76496;BME280;65329;52.544;4.662;2023-12-29T08:22:16;117940.31;;;-139.74;0.00
76496;BME280;65329;52.544;4.662;2023-12-29T08:24:43;117940.31;;;-139.74;0.00
76496;BME280;65329;52.544;4.662;2023-12-29T08:27:14;117940.31;;;-139.74;0.00
76496;BME280;65329;52.544;4.662;2023-12-29T08:29:41;117940.31;;;-139.74;0.00
76496;BME280;65329;52.544;4.662;2023-12-29T08:32:08;117940.31;;;-139.74;0.00
76496;BME280;65329;52.544;4.662;2023-12-29T08:34:35;117940.31;;;-139.74;0.00
76496;BME280;65329;52.544;4.662;2023-12-29T08:37:04;117940.31;;;-139.74;0.00
76496;BME280;65329;52.544;4.662;2023-12-29T08:39:32;117940.31;;;-139.74;0.00
76496;BME280;65329;52.544;4.662;2023-12-29T08:41:59;117940.31;;;-139.74;0.00
76496;BME280;65329;52.544;4.662;2023-12-29T08:44:26;117940.31;;;-139.74;0.00
76496;BME280;65329;52.544;4.662;2023-12-29T08:46:53;117940.31;;;-139.74;0.00
76496;BME280;65329;52.544;4.662;2023-12-29T08:49:21;117940.31;;;-139.74;0.00
76496;BME280;65329;52.544;4.662;2023-12-29T08:51:48;117940.31;;;-139.74;0.00
76496;BME280;65329;52.544;4.662;2023-12-29T08:54:15;117940.31;;;-139.74;0.00
76496;BME280;65329;52.544;4.662;2023-12-29T08:56:42;117940.31;;;-139.74;0.00
76496;BME280;65329;52.544;4.662;2023-12-29T08:59:09;117940.31;;;-139.74;0.00
76496;BME280;65329;52.544;4.662;2023-12-29T09:01:36;117940.31;;;-139.74;0.00
76496;BME280;65329;52.544;4.662;2023-12-29T09:04:03;117940.31;;;-139.74;0.00
76496;BME280;65329;52.544;4.662;2023-12-29T09:06:30;117940.31;;;-139.74;0.00
76496;BME280;65329;52.544;4.662;2023-12-29T09:08:57;117940.31;;;-139.74;0.00
76496;BME280;65329;52.544;4.662;2023-12-29T09:11:25;117940.31;;;-139.74;0.00
76496;BME280;65329;52.544;4.662;2023-12-29T09:13:53;117940.31;;;-139.74;0.00
76496;BME280;65329;52.544;4.662;2023-12-29T09:16:20;117940.31;;;-139.74;0.00
76496;BME280;65329;52.544;4.662;2023-12-29T09:18:46;117940.31;;;-139.74;0.00
76496;BME280;65329;52.544;4.662;2023-12-29T09:21:14;117940.31;;;-139.74;0.00
76496;BME280;65329;52.544;4.662;2023-12-29T09:23:41;117940.31;;;-139.74;0.00
76496;BME280;65329;52.544;4.662;2023-12-29T09:26:08;117940.31;;;-139.74;0.00
76496;BME280;65329;52.544;4.662;2023-12-29T09:28:35;117940.31;;;-139.74;0.00
76496;BME280;65329;52.544;4.662;2023-12-29T09:31:02;117940.31;;;-139.74;0.00
76496;BME280;65329;52.544;4.662;2023-12-29T09:33:29;117940.31;;;-139.74;0.00
76496;BME280;65329;52.544;4.662;2023-12-29T09:35:56;117940.31;;;-139.74;0.00
76496;BME280;65329;52.544;4.662;2023-12-29T09:38:23;117940.31;;;-139.74;0.00
76496;BME280;65329;52.544;4.662;2023-12-29T09:40:50;117940.31;;;-139.74;0.00
76496;BME280;65329;52.544;4.662;2023-12-29T09:43:19;117940.31;;;-139.74;0.00
76496;BME280;65329;52.544;4.662;2023-12-29T09:45:47;117940.31;;;-139.74;0.00
76496;BME280;65329;52.544;4.662;2023-12-29T09:48:16;117940.31;;;-139.74;0.00
76496;BME280;65329;52.544;4.662;2023-12-29T09:50:49;117940.31;;;-139.74;0.00
76496;BME280;65329;52.544;4.662;2023-12-29T09:53:17;117940.31;;;-139.74;0.00
76496;BME280;65329;52.544;4.662;2023-12-29T09:55:49;117940.31;;;-139.74;0.00
76496;BME280;65329;52.544;4.662;2023-12-29T09:58:19;117940.31;;;-139.74;0.00
76496;BME280;65329;52.544;4.662;2023-12-29T10:00:49;117940.31;;;-139.74;0.00
76496;BME280;65329;52.544;4.662;2023-12-29T10:03:17;117940.31;;;-139.74;0.00
76496;BME280;65329;52.544;4.662;2023-12-29T10:05:50;117940.31;;;-139.74;0.00
76496;BME280;65329;52.544;4.662;2023-12-29T10:08:18;117940.31;;;-139.74;0.00
76496;BME280;65329;52.544;4.662;2023-12-29T10:10:48;117940.31;;;-139.74;0.00
76496;BME280;65329;52.544;4.662;2023-12-29T10:13:17;117940.31;;;-139.74;0.00
76496;BME280;65329;52.544;4.662;2023-12-29T10:15:58;117940.31;;;-139.74;0.00
76496;BME280;65329;52.544;4.662;2023-12-29T10:24:12;117940.31;;;-139.74;0.00
76496;BME280;65329;52.544;4.662;2023-12-29T10:26:44;117940.31;;;-139.74;0.00
76496;BME280;65329;52.544;4.662;2023-12-29T10:29:14;117940.31;;;-139.74;0.00
76496;BME280;65329;52.544;4.662;2023-12-29T10:31:43;117940.31;;;-139.74;0.00
76496;BME280;65329;52.544;4.662;2023-12-29T10:34:20;117940.31;;;-139.74;0.00
76496;BME280;65329;52.544;4.662;2023-12-29T10:36:49;117940.31;;;-139.74;0.00
76496;BME280;65329;52.544;4.662;2023-12-29T10:39:17;117940.31;;;-139.74;0.00
76496;BME280;65329;52.544;4.662;2023-12-29T10:41:44;117940.31;;;-139.74;0.00
76496;BME280;65329;52.544;4.662;2023-12-29T10:44:11;117940.31;;;-139.74;0.00
76496;BME280;65329;52.544;4.662;2023-12-29T10:46:38;117940.31;;;-139.74;0.00
76496;BME280;65329;52.544;4.662;2023-12-29T10:49:13;117940.31;;;-139.74;0.00
76496;BME280;65329;52.544;4.662;2023-12-29T10:51:40;117940.31;;;-139.74;0.00
76496;BME280;65329;52.544;4.662;2023-12-29T10:54:07;117940.31;;;-139.74;0.00
76496;BME280;65329;52.544;4.662;2023-12-29T10:56:34;117940.31;;;-139.74;0.00
76496;BME280;65329;52.544;4.662;2023-12-29T10:59:03;117940.31;;;-139.74;0.00
76496;BME280;65329;52.544;4.662;2023-12-29T11:01:32;117940.31;;;-139.74;0.00
76496;BME280;65329;52.544;4.662;2023-12-29T11:04:04;117940.31;;;-139.74;0.00
76496;BME280;65329;52.544;4.662;2023-12-29T11:06:41;117940.31;;;-139.74;0.00
76496;BME280;65329;52.544;4.662;2023-12-29T11:09:10;117940.31;;;-139.74;0.00
76496;BME280;65329;52.544;4.662;2023-12-29T11:11:37;117940.31;;;-139.74;0.00
76496;BME280;65329;52.544;4.662;2023-12-29T11:14:05;117940.31;;;-139.74;0.00
76496;BME280;65329;52.544;4.662;2023-12-29T11:16:32;117940.31;;;-139.74;0.00
76496;BME280;65329;52.544;4.662;2023-12-29T11:19:00;117940.31;;;-139.74;0.00
76496;BME280;65329;52.544;4.662;2023-12-29T11:21:30;117940.31;;;-139.74;0.00
76496;BME280;65329;52.544;4.662;2023-12-29T11:23:57;117940.31;;;-139.74;0.00
76496;BME280;65329;52.544;4.662;2023-12-29T11:26:25;117940.31;;;-139.74;0.00
76496;BME280;65329;52.544;4.662;2023-12-29T11:28:53;117940.31;;;-139.74;0.00
76496;BME280;65329;52.544;4.662;2023-12-29T11:31:21;117940.31;;;-139.74;0.00
76496;BME280;65329;52.544;4.662;2023-12-29T11:34:02;117940.31;;;-139.74;0.00
76496;BME280;65329;52.544;4.662;2023-12-29T11:36:35;117940.31;;;-139.74;0.00
76496;BME280;65329;52.544;4.662;2023-12-29T11:39:25;117940.31;;;-139.74;0.00
76496;BME280;65329;52.544;4.662;2023-12-29T11:42:16;117940.31;;;-139.74;0.00
76496;BME280;65329;52.544;4.662;2023-12-29T11:44:44;117940.31;;;-139.74;0.00
76496;BME280;65329;52.544;4.662;2023-12-29T11:47:35;117940.31;;;-139.74;0.00
76496;BME280;65329;52.544;4.662;2023-12-29T11:50:03;117940.31;;;-139.74;0.00
76496;BME280;65329;52.544;4.662;2023-12-29T11:52:37;117940.31;;;-139.74;0.00
76496;BME280;65329;52.544;4.662;2023-12-29T11:55:11;117940.31;;;-139.74;0.00
76496;BME280;65329;52.544;4.662;2023-12-29T11:57:39;117940.31;;;-139.74;0.00
76496;BME280;65329;52.544;4.662;2023-12-29T12:00:08;117940.31;;;-139.74;0.00
76496;BME280;65329;52.544;4.662;2023-12-29T12:02:38;117940.31;;;-139.74;0.00
76496;BME280;65329;52.544;4.662;2023-12-29T12:05:09;117940.31;;;-139.74;0.00
76496;BME280;65329;52.544;4.662;2023-12-29T12:10:31;117940.31;;;-139.74;0.00
76496;BME280;65329;52.544;4.662;2023-12-29T12:13:00;117940.31;;;-139.74;0.00
76496;BME280;65329;52.544;4.662;2023-12-29T12:17:56;117940.31;;;-139.74;0.00
76496;BME280;65329;52.544;4.662;2023-12-29T12:20:24;117940.31;;;-139.74;0.00
76496;BME280;65329;52.544;4.662;2023-12-29T12:25:29;117940.31;;;-139.74;0.00
76496;BME280;65329;52.544;4.662;2023-12-29T12:27:57;117940.31;;;-139.74;0.00
76496;BME280;65329;52.544;4.662;2023-12-29T12:30:24;117940.31;;;-139.74;0.00
76496;BME280;65329;52.544;4.662;2023-12-29T12:33:00;117940.31;;;-139.74;0.00
76496;BME280;65329;52.544;4.662;2023-12-29T12:35:28;117940.31;;;-139.74;0.00
76496;BME280;65329;52.544;4.662;2023-12-29T12:40:35;117940.31;;;-139.74;0.00
76496;BME280;65329;52.544;4.662;2023-12-29T12:43:02;117940.31;;;-139.74;0.00
76496;BME280;65329;52.544;4.662;2023-12-29T12:45:34;117940.31;;;-139.74;0.00
76496;BME280;65329;52.544;4.662;2023-12-29T12:48:03;117940.31;;;-139.74;0.00
76496;BME280;65329;52.544;4.662;2023-12-29T12:50:35;117940.31;;;-139.74;0.00
76496;BME280;65329;52.544;4.662;2023-12-29T12:53:02;117940.31;;;-139.74;0.00
76496;BME280;65329;52.544;4.662;2023-12-29T12:55:35;117940.31;;;-139.74;0.00
76496;BME280;65329;52.544;4.662;2023-12-29T12:58:02;117940.31;;;-139.74;0.00
76496;BME280;65329;52.544;4.662;2023-12-29T13:00:30;117940.31;;;-139.74;0.00
76496;BME280;65329;52.544;4.662;2023-12-29T13:02:57;117940.31;;;-139.74;0.00
76496;BME280;65329;52.544;4.662;2023-12-29T13:05:27;117940.31;;;-139.74;0.00
76496;BME280;65329;52.544;4.662;2023-12-29T13:07:55;117940.31;;;-139.74;0.00
76496;BME280;65329;52.544;4.662;2023-12-29T13:10:22;117940.31;;;-139.74;0.00